Time;durP1;ratioP1;P1;durP2;ratioP2;P2;SDS_P1;SDS_P2;PMS_P1;PMS_P2;Temp;Humidity;BMP_temperature;BMP_pressure;BME280_temperature;BME280_humidity;BME280_pressure;Samples;Min_cycle;Max_cycle;Signal;HPM_P1;HPM_P2
2022/12/29 00:01:52;;;;;;;;;;;6.80;99.90;;;;;;5043908;28;19963;-68
2022/12/29 00:04:19;;;;;;;;;;;6.80;99.90;;;;;;5043570;28;19944;-69
2022/12/29 00:06:48;;;;;;;;;;;6.90;99.90;;;;;;5042895;28;19921;-70
2022/12/29 00:09:16;;;;;;;;;;;6.90;99.90;;;;;;5041935;28;19967;-69
2022/12/29 00:11:43;;;;;;;;;;;7.00;99.90;;;;;;5043534;28;20283;-69
2022/12/29 00:16:54;;;;;;;;;;;7.00;99.90;;;;;;5022941;28;20240;-69
2022/12/29 00:35:55;;;;;;;;;;;7.30;99.90;;;;;;5049548;28;19989;-69
2022/12/29 00:44:09;;;;;;;;;;;7.40;99.90;;;;;;4998874;28;19922;-68
2022/12/29 00:46:37;;;;;;;;;;;7.40;99.90;;;;;;5048643;28;19967;-69
2022/12/29 00:51:48;;;;;;;;;;;7.50;99.90;;;;;;5049618;28;19931;-69
2022/12/29 00:54:16;;;;;;;;;;;7.60;99.90;;;;;;5048766;28;19992;-69
2022/12/29 00:56:43;;;;;;;;;;;7.60;99.90;;;;;;5028814;28;19964;-69
2022/12/29 00:59:10;;;;;;;;;;;7.60;99.90;;;;;;5029860;28;19989;-69
2022/12/29 01:01:38;;;;;;;;;;;7.70;99.90;;;;;;5047909;28;19921;-69
2022/12/29 01:04:04;;;;;;;;;;;7.70;99.90;;;;;;5049394;28;19984;-70
2022/12/29 01:06:31;;;;;;;;;;;7.70;99.90;;;;;;5048818;28;19993;-69
2022/12/29 01:11:43;;;;;;;;;;;7.70;99.90;;;;;;5049432;28;19971;-69
2022/12/29 01:14:10;;;;;;;;;;;7.70;99.90;;;;;;5048798;28;19927;-69
2022/12/29 01:16:36;;;;;;;;;;;7.70;99.90;;;;;;5046954;28;19984;-68
2022/12/29 01:19:03;;;;;;;;;;;7.70;99.90;;;;;;5048438;28;19921;-69
2022/12/29 01:21:30;;;;;;;;;;;7.70;99.90;;;;;;5048953;28;20119;-69
2022/12/29 01:23:57;;;;;;;;;;;7.80;99.90;;;;;;5048817;28;19953;-68
2022/12/29 01:26:23;;;;;;;;;;;7.80;99.90;;;;;;5048722;28;19980;-68
2022/12/29 01:28:51;;;;;;;;;;;7.70;99.90;;;;;;5049421;28;19984;-69
2022/12/29 01:31:18;;;;;;;;;;;7.80;99.90;;;;;;5049439;28;19992;-68
2022/12/29 01:33:44;;;;;;;;;;;7.80;99.90;;;;;;5049408;28;19980;-68
2022/12/29 01:36:12;;;;;;;;;;;7.80;99.90;;;;;;5048642;28;19963;-69
2022/12/29 01:38:39;;;;;;;;;;;7.80;99.90;;;;;;5049023;28;19927;-69
2022/12/29 01:41:07;;;;;;;;;;;7.80;99.90;;;;;;5049472;28;19927;-68
2022/12/29 01:43:39;;;;;;;;;;;7.80;99.90;;;;;;5045292;28;19963;-68
2022/12/29 01:46:08;;;;;;;;;;;7.80;99.90;;;;;;5045307;28;20244;-69
2022/12/29 01:48:35;;;;;;;;;;;7.80;99.90;;;;;;5046062;28;19921;-69
2022/12/29 01:51:01;;;;;;;;;;;7.90;99.90;;;;;;5045869;28;19920;-69
2022/12/29 01:53:30;;;;;;;;;;;7.90;99.90;;;;;;5046014;28;19988;-68
2022/12/29 01:55:59;;;;;;;;;;;7.90;99.90;;;;;;5045792;28;19921;-70
2022/12/29 01:58:28;;;;;;;;;;;7.90;99.90;;;;;;5045670;28;19960;-68
2022/12/29 02:00:55;;;;;;;;;;;7.80;99.90;;;;;;5046120;28;19921;-70
2022/12/29 02:03:23;;;;;;;;;;;7.80;99.90;;;;;;5046021;28;20164;-68
2022/12/29 02:05:53;;;;;;;;;;;7.80;99.90;;;;;;5045325;28;19984;-69
2022/12/29 02:08:21;;;;;;;;;;;7.80;99.90;;;;;;5045455;28;19928;-69
2022/12/29 02:10:48;;;;;;;;;;;7.80;99.90;;;;;;5045942;28;19988;-69
2022/12/29 02:13:16;;;;;;;;;;;7.80;99.90;;;;;;5045469;28;19963;-69
2022/12/29 02:15:47;;;;;;;;;;;7.70;99.90;;;;;;5045285;28;19984;-70
2022/12/29 02:18:20;;;;;;;;;;;7.70;99.90;;;;;;5045230;28;19928;-70
2022/12/29 02:21:01;;;;;;;;;;;7.70;99.90;;;;;;5045398;28;19921;-70
2022/12/29 02:23:34;;;;;;;;;;;7.70;99.90;;;;;;5045215;28;20229;-70
2022/12/29 02:26:16;;;;;;;;;;;7.70;99.90;;;;;;5044665;28;19928;-69
2022/12/29 02:28:54;;;;;;;;;;;7.70;99.90;;;;;;5045127;28;19984;-70
2022/12/29 02:31:24;;;;;;;;;;;7.70;99.90;;;;;;5045470;28;19963;-70
2022/12/29 02:33:57;;;;;;;;;;;7.70;99.90;;;;;;5045353;28;19952;-70
2022/12/29 02:36:29;;;;;;;;;;;7.70;99.90;;;;;;5044438;28;19921;-69
2022/12/29 02:39:00;;;;;;;;;;;7.70;99.90;;;;;;5045190;28;19928;-70
2022/12/29 02:41:32;;;;;;;;;;;7.60;99.90;;;;;;5044311;28;20420;-70
2022/12/29 02:44:02;;;;;;;;;;;7.60;99.90;;;;;;5045197;28;19988;-69
2022/12/29 02:46:35;;;;;;;;;;;7.70;99.90;;;;;;5044056;28;19956;-69
2022/12/29 02:49:04;;;;;;;;;;;7.70;99.90;;;;;;5045194;28;19956;-69
2022/12/29 02:51:33;;;;;;;;;;;7.70;99.90;;;;;;5044730;28;20177;-70
2022/12/29 02:56:44;;;;;;;;;;;7.70;99.90;;;;;;5024185;28;19932;-69
2022/12/29 02:59:11;;;;;;;;;;;7.70;99.90;;;;;;5025134;28;19960;-68
2022/12/29 03:02:16;;;;;;;;;;;7.80;99.90;;;;;;5025245;28;19988;-70
2022/12/29 03:04:36;;;;;;;;;;;7.80;99.90;;;;;;5024623;28;19929;-69
2022/12/29 03:07:09;;;;;;;;;;;7.80;99.90;;;;;;5024118;28;20320;-69
2022/12/29 03:09:38;;;;;;;;;;;7.80;99.90;;;;;;5023404;28;19953;-70
2022/12/29 03:12:10;;;;;;;;;;;7.80;99.90;;;;;;5024582;28;19921;-69
2022/12/29 03:17:35;;;;;;;;;;;7.80;99.90;;;;;;5023819;28;20001;-69
2022/12/29 03:20:05;;;;;;;;;;;7.80;99.90;;;;;;5024741;28;19949;-70
2022/12/29 03:22:33;;;;;;;;;;;7.80;99.90;;;;;;5024678;28;19960;-70
2022/12/29 03:25:02;;;;;;;;;;;7.80;99.90;;;;;;5024639;28;20020;-69
2022/12/29 03:27:30;;;;;;;;;;;7.90;99.90;;;;;;5023731;28;19922;-69
2022/12/29 03:29:59;;;;;;;;;;;7.90;99.90;;;;;;5022989;28;19960;-70
2022/12/29 03:32:27;;;;;;;;;;;7.90;99.90;;;;;;5024554;28;19928;-69
2022/12/29 03:34:56;;;;;;;;;;;7.90;99.90;;;;;;5024477;28;19922;-69
2022/12/29 03:37:24;;;;;;;;;;;7.90;99.90;;;;;;5023524;28;19985;-70
2022/12/29 03:39:51;;;;;;;;;;;7.90;99.90;;;;;;5024446;28;19996;-70
2022/12/29 03:42:19;;;;;;;;;;;7.90;99.90;;;;;;5027446;28;19960;-70
2022/12/29 03:44:46;;;;;;;;;;;7.90;99.90;;;;;;5043500;28;19980;-70
2022/12/29 03:47:14;;;;;;;;;;;7.90;99.90;;;;;;5043350;28;19968;-70
2022/12/29 03:49:40;;;;;;;;;;;7.90;99.90;;;;;;5043856;28;19952;-69
2022/12/29 03:52:08;;;;;;;;;;;8.00;99.90;;;;;;5043551;28;19921;-70
2022/12/29 03:54:35;;;;;;;;;;;7.90;99.90;;;;;;5043779;28;19952;-71
2022/12/29 03:57:02;;;;;;;;;;;7.90;99.90;;;;;;5042606;28;19991;-70
2022/12/29 03:59:28;;;;;;;;;;;7.90;99.90;;;;;;5043769;28;20000;-69
2022/12/29 04:01:55;;;;;;;;;;;7.90;99.90;;;;;;5043803;28;19992;-70
2022/12/29 04:04:22;;;;;;;;;;;7.80;99.90;;;;;;5043493;28;20205;-70
2022/12/29 04:06:48;;;;;;;;;;;7.80;99.90;;;;;;5042391;28;19929;-70
2022/12/29 04:09:16;;;;;;;;;;;7.90;99.90;;;;;;5043754;28;19921;-69
2022/12/29 04:11:43;;;;;;;;;;;7.90;99.90;;;;;;5043262;28;20373;-69
2022/12/29 04:14:10;;;;;;;;;;;7.90;99.90;;;;;;5043657;28;19928;-70
2022/12/29 04:16:38;;;;;;;;;;;7.80;99.90;;;;;;5042551;28;20120;-70
2022/12/29 04:19:05;;;;;;;;;;;7.80;99.90;;;;;;5043000;28;19921;-70
2022/12/29 04:21:31;;;;;;;;;;;7.90;99.90;;;;;;5043246;28;19921;-69
2022/12/29 04:23:58;;;;;;;;;;;7.90;99.90;;;;;;5043481;28;19984;-70
2022/12/29 04:26:26;;;;;;;;;;;7.90;99.90;;;;;;5042541;28;19921;-70
2022/12/29 04:28:53;;;;;;;;;;;7.90;99.90;;;;;;5042895;28;19964;-69
2022/12/29 04:31:19;;;;;;;;;;;7.90;99.90;;;;;;5041867;28;19957;-69
2022/12/29 04:33:46;;;;;;;;;;;8.00;99.90;;;;;;5043304;28;19956;-70
2022/12/29 04:36:12;;;;;;;;;;;8.00;99.90;;;;;;5042328;28;19953;-70
2022/12/29 04:38:39;;;;;;;;;;;8.00;99.90;;;;;;5042957;28;19980;-70
2022/12/29 04:41:06;;;;;;;;;;;8.10;99.90;;;;;;5043311;28;19953;-69
2022/12/29 04:43:34;;;;;;;;;;;8.10;99.90;;;;;;5042979;28;19984;-70
2022/12/29 04:46:00;;;;;;;;;;;8.20;99.90;;;;;;5042722;28;19984;-70
2022/12/29 04:48:27;;;;;;;;;;;8.20;99.90;;;;;;5043157;28;19922;-70
2022/12/29 04:50:54;;;;;;;;;;;8.20;99.90;;;;;;5043368;28;20012;-70
2022/12/29 04:53:20;;;;;;;;;;;8.20;99.90;;;;;;5043327;28;19953;-69
2022/12/29 04:55:49;;;;;;;;;;;8.30;99.90;;;;;;5042782;28;20399;-70
2022/12/29 04:58:15;;;;;;;;;;;8.20;99.90;;;;;;5042766;28;19988;-70
2022/12/29 05:00:43;;;;;;;;;;;8.20;99.90;;;;;;5042689;28;20232;-69
2022/12/29 05:03:10;;;;;;;;;;;8.20;99.90;;;;;;5042836;28;20284;-69
2022/12/29 05:05:37;;;;;;;;;;;8.20;99.90;;;;;;5042772;28;19952;-70
2022/12/29 05:08:03;;;;;;;;;;;8.20;99.90;;;;;;5042255;28;19944;-70
2022/12/29 05:10:30;;;;;;;;;;;8.20;99.90;;;;;;5043102;28;19921;-70
2022/12/29 05:12:58;;;;;;;;;;;8.20;99.90;;;;;;5042629;28;20259;-70
2022/12/29 05:15:25;;;;;;;;;;;8.20;99.90;;;;;;5042827;28;19988;-69
2022/12/29 05:17:52;;;;;;;;;;;8.20;99.90;;;;;;5043562;28;19993;-69
2022/12/29 05:20:19;;;;;;;;;;;8.20;99.90;;;;;;5046672;28;19927;-70
2022/12/29 05:22:46;;;;;;;;;;;8.20;99.90;;;;;;5046548;28;20116;-70
2022/12/29 05:25:12;;;;;;;;;;;8.20;99.90;;;;;;5046073;28;19921;-70
2022/12/29 05:27:39;;;;;;;;;;;8.20;99.90;;;;;;5045823;28;19960;-69
2022/12/29 05:30:06;;;;;;;;;;;8.10;99.90;;;;;;5046501;28;19984;-70
2022/12/29 05:32:33;;;;;;;;;;;8.10;99.90;;;;;;5046543;28;20120;-69
2022/12/29 05:35:01;;;;;;;;;;;8.10;99.90;;;;;;5045945;28;19957;-69
2022/12/29 05:37:27;;;;;;;;;;;8.00;99.90;;;;;;5045425;28;19921;-69
2022/12/29 05:39:54;;;;;;;;;;;8.00;99.90;;;;;;5046276;28;20005;-69
2022/12/29 05:42:21;;;;;;;;;;;8.00;99.90;;;;;;5045965;28;19928;-69
2022/12/29 05:44:49;;;;;;;;;;;8.00;99.90;;;;;;5046077;28;19953;-69
2022/12/29 05:47:16;;;;;;;;;;;8.00;99.90;;;;;;5045500;28;19979;-69
2022/12/29 05:49:43;;;;;;;;;;;7.90;99.90;;;;;;5045863;28;20255;-70
2022/12/29 05:52:11;;;;;;;;;;;7.90;99.90;;;;;;5046104;28;19988;-69
2022/12/29 05:54:37;;;;;;;;;;;7.90;99.90;;;;;;5045997;28;19981;-69
2022/12/29 05:57:04;;;;;;;;;;;7.90;99.90;;;;;;5045288;28;19964;-69
2022/12/29 05:59:30;;;;;;;;;;;7.90;99.90;;;;;;5045686;28;20237;-70
2022/12/29 06:01:57;;;;;;;;;;;7.90;99.90;;;;;;5045721;28;19964;-70
2022/12/29 06:04:24;;;;;;;;;;;7.90;99.90;;;;;;5045616;28;19944;-70
2022/12/29 06:06:50;;;;;;;;;;;7.90;99.90;;;;;;5044899;28;20177;-70
2022/12/29 06:09:18;;;;;;;;;;;7.90;99.90;;;;;;5045837;28;19927;-69
2022/12/29 06:11:45;;;;;;;;;;;7.90;99.90;;;;;;5045754;28;19980;-70
2022/12/29 06:14:11;;;;;;;;;;;8.00;99.90;;;;;;5045588;28;20173;-69
2022/12/29 06:16:38;;;;;;;;;;;7.90;99.90;;;;;;5045070;28;19992;-69
2022/12/29 06:19:05;;;;;;;;;;;7.90;99.90;;;;;;5045130;28;19928;-70
2022/12/29 06:21:32;;;;;;;;;;;7.90;99.90;;;;;;5036210;28;19984;-70
2022/12/29 06:23:58;;;;;;;;;;;8.00;99.90;;;;;;5040439;28;19957;-70
2022/12/29 06:26:26;;;;;;;;;;;8.00;99.90;;;;;;5024707;28;20158;-70
2022/12/29 06:28:53;;;;;;;;;;;8.00;99.90;;;;;;5034391;28;20365;-70
2022/12/29 06:31:19;;;;;;;;;;;8.00;99.90;;;;;;5045168;28;19984;-70
2022/12/29 06:33:46;;;;;;;;;;;8.00;99.90;;;;;;5045118;28;19960;-70
2022/12/29 06:36:13;;;;;;;;;;;8.00;99.90;;;;;;5043851;28;19928;-70
2022/12/29 06:38:39;;;;;;;;;;;8.00;99.90;;;;;;5024769;28;19928;-70
2022/12/29 06:41:06;;;;;;;;;;;8.10;99.90;;;;;;5025446;28;20145;-70
2022/12/29 06:43:35;;;;;;;;;;;8.10;99.90;;;;;;5030272;28;19984;-70
2022/12/29 06:46:02;;;;;;;;;;;8.10;99.90;;;;;;5044640;28;19937;-70
2022/12/29 06:48:28;;;;;;;;;;;8.10;99.90;;;;;;5045061;28;19921;-70
2022/12/29 06:50:55;;;;;;;;;;;8.10;99.90;;;;;;5044685;28;20201;-70
2022/12/29 06:53:22;;;;;;;;;;;8.10;99.90;;;;;;5044936;28;19963;-70
2022/12/29 06:55:48;;;;;;;;;;;8.20;99.90;;;;;;5024685;28;19964;-70
2022/12/29 06:58:15;;;;;;;;;;;8.10;99.90;;;;;;5024567;28;20269;-70
2022/12/29 07:00:43;;;;;;;;;;;8.10;99.90;;;;;;5024937;28;19937;-70
2022/12/29 07:03:10;;;;;;;;;;;8.00;99.90;;;;;;5064410;28;20276;-71
2022/12/29 07:05:36;;;;;;;;;;;8.00;99.90;;;;;;5064071;28;19964;-70
2022/12/29 07:08:03;;;;;;;;;;;8.00;99.90;;;;;;5063665;28;19963;-71
2022/12/29 07:10:29;;;;;;;;;;;7.90;99.90;;;;;;5064459;28;19928;-70
2022/12/29 07:12:56;;;;;;;;;;;7.80;99.90;;;;;;5064605;28;19921;-69
2022/12/29 07:15:23;;;;;;;;;;;7.80;99.90;;;;;;5064170;28;19999;-68
2022/12/29 07:17:51;;;;;;;;;;;7.80;99.90;;;;;;5063714;28;19920;-70
2022/12/29 07:20:17;;;;;;;;;;;7.70;99.90;;;;;;5057142;28;19921;-70
2022/12/29 07:22:44;;;;;;;;;;;7.70;99.90;;;;;;5044010;28;19963;-69
2022/12/29 07:25:10;;;;;;;;;;;7.70;99.90;;;;;;5043607;28;19952;-70
2022/12/29 07:27:37;;;;;;;;;;;7.60;99.90;;;;;;5042940;28;19952;-69
2022/12/29 07:30:04;;;;;;;;;;;7.60;99.90;;;;;;5043841;28;19941;-69
2022/12/29 07:32:32;;;;;;;;;;;7.60;99.90;;;;;;5044266;28;20173;-70
2022/12/29 07:35:00;;;;;;;;;;;7.60;99.90;;;;;;5043722;28;20234;-69
2022/12/29 07:37:27;;;;;;;;;;;7.60;99.90;;;;;;5043163;28;19921;-68
2022/12/29 07:39:54;;;;;;;;;;;7.60;99.90;;;;;;5043119;28;19964;-70
2022/12/29 07:42:20;;;;;;;;;;;7.60;99.90;;;;;;5043027;28;19920;-70
2022/12/29 07:44:47;;;;;;;;;;;7.60;99.90;;;;;;5043818;28;19952;-70
2022/12/29 07:47:13;;;;;;;;;;;7.60;99.90;;;;;;5043051;28;20233;-70
2022/12/29 07:49:41;;;;;;;;;;;7.60;99.90;;;;;;5041246;28;19928;-70
2022/12/29 07:52:09;;;;;;;;;;;7.60;99.90;;;;;;5043658;28;19984;-69
2022/12/29 07:54:36;;;;;;;;;;;7.70;99.90;;;;;;5043815;28;19943;-69
2022/12/29 07:57:02;;;;;;;;;;;7.70;99.90;;;;;;5042953;28;20265;-70
2022/12/29 07:59:30;;;;;;;;;;;7.70;99.90;;;;;;5043825;28;19971;-70
2022/12/29 08:01:56;;;;;;;;;;;7.70;99.90;;;;;;5043499;28;20165;-70
2022/12/29 08:04:23;;;;;;;;;;;7.70;99.90;;;;;;5043781;28;19927;-69
2022/12/29 08:06:50;;;;;;;;;;;7.80;99.90;;;;;;5042534;28;19921;-69
2022/12/29 08:09:18;;;;;;;;;;;7.80;99.90;;;;;;5043670;28;19963;-70
2022/12/29 08:11:44;;;;;;;;;;;7.80;99.90;;;;;;5043649;28;19963;-70
2022/12/29 08:14:11;;;;;;;;;;;7.80;99.90;;;;;;5043722;28;19960;-70
2022/12/29 08:16:38;;;;;;;;;;;7.80;99.90;;;;;;5042758;28;19975;-68
2022/12/29 08:19:04;;;;;;;;;;;7.80;99.90;;;;;;5043551;28;20175;-70
2022/12/29 08:21:31;;;;;;;;;;;7.80;99.90;;;;;;5043456;28;19936;-69
2022/12/29 08:23:58;;;;;;;;;;;7.80;99.90;;;;;;5043104;28;19953;-70
2022/12/29 08:26:26;;;;;;;;;;;7.80;99.90;;;;;;5042344;28;19921;-70
2022/12/29 08:28:53;;;;;;;;;;;7.80;99.90;;;;;;5043083;28;20077;-70
2022/12/29 08:31:20;;;;;;;;;;;7.80;99.90;;;;;;5043349;28;20001;-70
2022/12/29 08:33:46;;;;;;;;;;;7.70;99.90;;;;;;5043443;28;19943;-69
2022/12/29 08:36:13;;;;;;;;;;;7.80;99.90;;;;;;5040109;28;20039;-70
2022/12/29 08:38:40;;;;;;;;;;;7.80;99.90;;;;;;5042981;28;19980;-70
2022/12/29 08:41:06;;;;;;;;;;;7.90;99.90;;;;;;5043233;28;19980;-68
2022/12/29 08:43:34;;;;;;;;;;;7.90;99.90;;;;;;5043043;28;19928;-70
2022/12/29 08:46:01;;;;;;;;;;;7.90;99.90;;;;;;5042604;28;19952;-69
2022/12/29 08:48:28;;;;;;;;;;;8.00;99.90;;;;;;5040610;28;19957;-69
2022/12/29 08:50:54;;;;;;;;;;;8.00;99.90;;;;;;5042999;28;19921;-68
2022/12/29 08:53:21;;;;;;;;;;;8.10;99.90;;;;;;5047315;28;19987;-69
2022/12/29 08:55:48;;;;;;;;;;;8.10;99.90;;;;;;5046447;28;20220;-69
2022/12/29 08:58:16;;;;;;;;;;;8.10;99.90;;;;;;5046439;28;19925;-70
2022/12/29 09:00:44;;;;;;;;;;;8.20;99.90;;;;;;5046857;28;20213;-70
2022/12/29 09:03:10;;;;;;;;;;;8.20;99.90;;;;;;5047181;28;20205;-70
2022/12/29 09:05:37;;;;;;;;;;;8.30;99.90;;;;;;5046569;28;19921;-70
2022/12/29 09:08:05;;;;;;;;;;;8.30;99.90;;;;;;5046554;28;19921;-70
2022/12/29 09:10:32;;;;;;;;;;;8.40;99.90;;;;;;5046935;28;19987;-70
2022/12/29 09:12:58;;;;;;;;;;;8.40;99.90;;;;;;5046635;28;19984;-70
2022/12/29 09:15:25;;;;;;;;;;;8.40;99.90;;;;;;5046362;28;19951;-70
2022/12/29 09:17:55;;;;;;;;;;;8.50;99.90;;;;;;5045910;28;19953;-70
2022/12/29 09:20:21;;;;;;;;;;;8.50;99.90;;;;;;5046788;28;20133;-69
2022/12/29 09:22:49;;;;;;;;;;;8.50;99.90;;;;;;5046738;28;20121;-69
2022/12/29 09:25:16;;;;;;;;;;;8.60;99.90;;;;;;5046213;28;19992;-70
2022/12/29 09:27:42;;;;;;;;;;;8.60;99.90;;;;;;5045683;28;19921;-70
2022/12/29 09:30:11;;;;;;;;;;;8.60;99.90;;;;;;5046700;28;19992;-70
2022/12/29 09:32:37;;;;;;;;;;;8.60;99.90;;;;;;5046629;28;20176;-70
2022/12/29 09:35:07;;;;;;;;;;;8.60;99.90;;;;;;5043806;28;19993;-70
2022/12/29 09:37:33;;;;;;;;;;;8.60;99.90;;;;;;5045145;28;19927;-70
2022/12/29 09:40:00;;;;;;;;;;;8.70;99.90;;;;;;5045994;28;20238;-70
2022/12/29 09:42:29;;;;;;;;;;;8.70;99.90;;;;;;5046368;28;19988;-69
2022/12/29 09:45:01;;;;;;;;;;;8.70;99.90;;;;;;5046200;28;19992;-70
2022/12/29 09:47:28;;;;;;;;;;;8.80;99.90;;;;;;5044259;28;19988;-69
2022/12/29 09:49:57;;;;;;;;;;;8.80;99.90;;;;;;5045494;28;20320;-70
2022/12/29 09:52:29;;;;;;;;;;;8.90;99.90;;;;;;5046282;28;19992;-70
2022/12/29 09:54:57;;;;;;;;;;;8.90;99.90;;;;;;5045829;28;20133;-70
2022/12/29 09:57:25;;;;;;;;;;;8.90;99.90;;;;;;5045002;28;19921;-70
2022/12/29 09:59:55;;;;;;;;;;;8.90;99.90;;;;;;5045872;28;19924;-70
2022/12/29 10:02:27;;;;;;;;;;;9.00;99.90;;;;;;5045752;28;19921;-70
2022/12/29 10:04:54;;;;;;;;;;;9.00;99.90;;;;;;5045249;28;19992;-70
2022/12/29 10:07:27;;;;;;;;;;;9.00;99.90;;;;;;5044930;28;20016;-68
2022/12/29 10:09:57;;;;;;;;;;;9.10;99.90;;;;;;5045650;28;20231;-70
2022/12/29 10:12:27;;;;;;;;;;;9.10;99.90;;;;;;5045813;28;19984;-69
2022/12/29 10:14:59;;;;;;;;;;;9.20;99.90;;;;;;5045262;28;19928;-70
2022/12/29 10:17:29;;;;;;;;;;;9.30;99.90;;;;;;5045017;28;20174;-70
2022/12/29 10:20:11;;;;;;;;;;;9.30;99.90;;;;;;5045635;28;19988;-70
2022/12/29 10:22:43;;;;;;;;;;;9.40;99.90;;;;;;5045798;28;20153;-70
2022/12/29 10:25:13;;;;;;;;;;;9.40;99.90;;;;;;5045622;28;20000;-69
2022/12/29 10:27:40;;;;;;;;;;;9.50;99.90;;;;;;5044594;28;19984;-70
2022/12/29 10:30:12;;;;;;;;;;;9.50;99.90;;;;;;5045584;28;19921;-70
2022/12/29 10:32:40;;;;;;;;;;;9.50;99.90;;;;;;5045557;28;19927;-70
2022/12/29 10:35:12;;;;;;;;;;;9.60;99.90;;;;;;5045491;28;19983;-70
2022/12/29 10:37:44;;;;;;;;;;;9.60;99.90;;;;;;5044534;28;19980;-70
2022/12/29 10:40:15;;;;;;;;;;;9.60;99.90;;;;;;5045213;28;19952;-70
2022/12/29 10:42:43;;;;;;;;;;;9.70;99.90;;;;;;5045301;28;19921;-69
2022/12/29 10:45:12;;;;;;;;;;;9.70;99.90;;;;;;5042936;28;19983;-69
2022/12/29 10:47:43;;;;;;;;;;;9.70;99.90;;;;;;5032691;28;19992;-70
2022/12/29 10:50:12;;;;;;;;;;;9.70;99.90;;;;;;5037871;28;19922;-70
2022/12/29 10:52:41;;;;;;;;;;;9.70;99.90;;;;;;5039850;28;19921;-70
2022/12/29 10:55:13;;;;;;;;;;;9.80;99.90;;;;;;5044643;28;20395;-70
2022/12/29 10:57:43;;;;;;;;;;;9.80;99.90;;;;;;5044220;28;19956;-70
2022/12/29 11:00:12;;;;;;;;;;;9.80;99.90;;;;;;5044770;28;19921;-70
2022/12/29 11:02:47;;;;;;;;;;;9.80;99.90;;;;;;5044591;28;19921;-70
2022/12/29 11:05:17;;;;;;;;;;;9.80;99.90;;;;;;5044268;28;19921;-70
2022/12/29 11:07:47;;;;;;;;;;;9.80;99.90;;;;;;5043967;28;20004;-70
2022/12/29 11:10:17;;;;;;;;;;;9.80;99.90;;;;;;5037820;28;19943;-70
2022/12/29 11:12:55;;;;;;;;;;;9.80;99.90;;;;;;5039320;28;20240;-70
2022/12/29 11:15:22;;;;;;;;;;;9.80;99.90;;;;;;5030537;28;19920;-69
2022/12/29 11:17:49;;;;;;;;;;;9.80;99.90;;;;;;5040320;28;19963;-70
2022/12/29 11:20:29;;;;;;;;;;;9.70;99.90;;;;;;5024519;28;19979;-70
2022/12/29 11:22:58;;;;;;;;;;;9.80;99.90;;;;;;5024331;28;19921;-70
2022/12/29 11:25:24;;;;;;;;;;;9.80;99.90;;;;;;5021760;28;19921;-70
2022/12/29 11:27:58;;;;;;;;;;;9.90;99.90;;;;;;5025365;28;19944;-70
2022/12/29 11:30:25;;;;;;;;;;;10.00;99.90;;;;;;5023287;28;19921;-70
2022/12/29 11:32:53;;;;;;;;;;;10.10;99.90;;;;;;5024497;28;19997;-70
2022/12/29 11:35:30;;;;;;;;;;;10.20;99.90;;;;;;5024390;28;19921;-69
2022/12/29 11:37:58;;;;;;;;;;;10.20;99.90;;;;;;5023849;28;19921;-69
2022/12/29 11:40:26;;;;;;;;;;;10.20;99.90;;;;;;5024303;28;20217;-70
2022/12/29 11:42:53;;;;;;;;;;;10.30;99.90;;;;;;5024326;28;20117;-69
2022/12/29 11:45:21;;;;;;;;;;;10.40;99.90;;;;;;5025466;28;20232;-70
2022/12/29 11:47:50;;;;;;;;;;;10.50;99.90;;;;;;5023324;28;20272;-70
2022/12/29 11:50:18;;;;;;;;;;;10.60;99.90;;;;;;5024215;28;19921;-70
2022/12/29 11:52:46;;;;;;;;;;;10.60;99.90;;;;;;5037942;28;19928;-70
2022/12/29 11:55:20;;;;;;;;;;;10.60;99.90;;;;;;5043561;28;19983;-70
2022/12/29 11:57:47;;;;;;;;;;;10.60;99.90;;;;;;5042906;28;20090;-70
2022/12/29 12:00:18;;;;;;;;;;;10.60;99.90;;;;;;5043883;28;19948;-70
2022/12/29 12:02:46;;;;;;;;;;;10.70;99.90;;;;;;5043519;28;19920;-69
2022/12/29 12:05:17;;;;;;;;;;;10.70;99.90;;;;;;5023599;28;20224;-70
2022/12/29 12:07:45;;;;;;;;;;;10.70;99.90;;;;;;5023342;28;19949;-70
2022/12/29 12:10:15;;;;;;;;;;;10.70;99.90;;;;;;5023750;28;19960;-70
2022/12/29 12:12:48;;;;;;;;;;;10.70;99.90;;;;;;5023539;28;20016;-70
2022/12/29 12:15:16;;;;;;;;;;;10.70;99.90;;;;;;5023877;28;19921;-70
2022/12/29 12:17:48;;;;;;;;;;;10.70;99.90;;;;;;5028308;28;19992;-70
2022/12/29 12:20:17;;;;;;;;;;;10.70;99.90;;;;;;5043583;28;19952;-69
2022/12/29 12:22:47;;;;;;;;;;;10.80;99.90;;;;;;5043260;28;20226;-70
2022/12/29 12:25:17;;;;;;;;;;;10.80;99.90;;;;;;5043205;28;19921;-70
2022/12/29 12:27:49;;;;;;;;;;;10.70;99.90;;;;;;5041191;28;19922;-70
2022/12/29 12:30:17;;;;;;;;;;;10.70;99.90;;;;;;5043315;28;20248;-70
2022/12/29 12:32:47;;;;;;;;;;;10.70;99.90;;;;;;5042817;28;19983;-70
2022/12/29 12:35:14;;;;;;;;;;;10.70;99.90;;;;;;5041982;28;19921;-70
2022/12/29 12:37:51;;;;;;;;;;;10.60;99.90;;;;;;5041832;28;19960;-70
2022/12/29 12:40:32;;;;;;;;;;;10.60;99.90;;;;;;5042709;28;19956;-70
2022/12/29 12:43:08;;;;;;;;;;;10.70;99.90;;;;;;5039811;28;20087;-70
2022/12/29 12:45:43;;;;;;;;;;;10.70;99.90;;;;;;5042629;28;19921;-70
2022/12/29 12:48:18;;;;;;;;;;;10.80;99.90;;;;;;5042131;28;19921;-70
2022/12/29 12:50:50;;;;;;;;;;;10.90;99.90;;;;;;5041454;28;19992;-70
2022/12/29 12:53:39;;;;;;;;;;;10.90;99.90;;;;;;5042532;28;19988;-70
2022/12/29 12:56:17;;;;;;;;;;;11.00;99.90;;;;;;5042724;28;19929;-70
2022/12/29 12:58:48;;;;;;;;;;;11.00;99.90;;;;;;5042834;28;19929;-72
2022/12/29 13:01:20;;;;;;;;;;;11.00;99.90;;;;;;5042738;28;19928;-70
2022/12/29 13:03:55;;;;;;;;;;;11.10;99.90;;;;;;5042919;28;19921;-70
2022/12/29 13:06:26;;;;;;;;;;;11.10;99.90;;;;;;5042594;28;19963;-69
2022/12/29 13:09:01;;;;;;;;;;;11.20;99.90;;;;;;5043218;28;19921;-70
2022/12/29 13:11:33;;;;;;;;;;;11.10;99.90;;;;;;5043088;28;19953;-70
2022/12/29 13:14:07;;;;;;;;;;;11.10;99.90;;;;;;5043249;28;19921;-70
2022/12/29 13:16:37;;;;;;;;;;;11.20;99.90;;;;;;5042246;28;19983;-68
2022/12/29 13:19:09;;;;;;;;;;;11.10;99.90;;;;;;5042946;28;19976;-70
2022/12/29 13:21:42;;;;;;;;;;;11.10;99.90;;;;;;5042667;28;19921;-70
2022/12/29 13:24:14;;;;;;;;;;;11.10;99.90;;;;;;5043075;28;19992;-70
2022/12/29 13:26:44;;;;;;;;;;;11.10;99.90;;;;;;5042233;28;20113;-70
2022/12/29 13:29:16;;;;;;;;;;;11.10;99.90;;;;;;5042532;28;19927;-69
2022/12/29 13:31:44;;;;;;;;;;;11.10;99.90;;;;;;5042958;28;19925;-70
2022/12/29 13:34:17;;;;;;;;;;;11.10;99.90;;;;;;5042874;28;19922;-70
2022/12/29 13:36:46;;;;;;;;;;;11.10;99.90;;;;;;5041995;28;19928;-70
2022/12/29 13:39:16;;;;;;;;;;;11.10;99.90;;;;;;5044822;28;20265;-70
2022/12/29 13:41:46;;;;;;;;;;;11.00;99.90;;;;;;5046280;28;19992;-70
2022/12/29 13:44:16;;;;;;;;;;;11.00;99.90;;;;;;5045359;28;19921;-70
2022/12/29 13:46:45;;;;;;;;;;;11.00;99.90;;;;;;5042975;28;19948;-70
2022/12/29 13:49:14;;;;;;;;;;;10.90;99.90;;;;;;5045876;28;19921;-70
2022/12/29 13:51:42;;;;;;;;;;;10.90;99.90;;;;;;5046014;28;19953;-70
2022/12/29 13:54:15;;;;;;;;;;;10.90;99.90;;;;;;5046099;28;20248;-70
2022/12/29 13:56:44;;;;;;;;;;;10.80;99.90;;;;;;5045408;28;20021;-70
2022/12/29 13:59:18;;;;;;;;;;;10.80;99.90;;;;;;5045900;28;19952;-69
2022/12/29 14:01:49;;;;;;;;;;;10.80;99.90;;;;;;5045600;28;19967;-70
2022/12/29 14:04:21;;;;;;;;;;;10.80;99.90;;;;;;5046095;28;19948;-69
2022/12/29 14:06:49;;;;;;;;;;;10.80;99.90;;;;;;5044058;28;19927;-68
2022/12/29 14:09:39;;;;;;;;;;;10.70;99.90;;;;;;5043872;28;19921;-69
2022/12/29 14:12:19;;;;;;;;;;;10.70;99.90;;;;;;5043712;28;19927;-69
2022/12/29 14:14:48;;;;;;;;;;;10.70;99.90;;;;;;5025765;28;19922;-69
2022/12/29 14:17:19;;;;;;;;;;;10.80;99.90;;;;;;5036769;28;20586;-69
2022/12/29 14:19:47;;;;;;;;;;;10.70;99.90;;;;;;5045577;28;19996;-69
2022/12/29 14:22:14;;;;;;;;;;;10.70;99.90;;;;;;5045523;28;19922;-69
2022/12/29 14:24:42;;;;;;;;;;;10.70;99.90;;;;;;5045335;28;20239;-68
2022/12/29 14:27:23;;;;;;;;;;;10.70;99.90;;;;;;5044645;28;20271;-69
2022/12/29 14:29:51;;;;;;;;;;;10.60;99.90;;;;;;5032605;28;19927;-69
2022/12/29 14:32:36;;;;;;;;;;;10.60;99.90;;;;;;5045272;28;20138;-69
2022/12/29 14:35:27;;;;;;;;;;;10.60;99.90;;;;;;5043906;28;19952;-68
2022/12/29 14:38:06;;;;;;;;;;;10.60;99.90;;;;;;5043177;28;20264;-69
2022/12/29 14:40:33;;;;;;;;;;;10.60;99.90;;;;;;5044641;28;19925;-69
2022/12/29 14:43:00;;;;;;;;;;;10.60;99.90;;;;;;5044820;28;20209;-69
2022/12/29 14:45:29;;;;;;;;;;;10.60;99.90;;;;;;5045110;28;19984;-69
2022/12/29 14:47:56;;;;;;;;;;;10.60;99.90;;;;;;5044041;28;19980;-69
2022/12/29 14:50:24;;;;;;;;;;;10.60;99.90;;;;;;5044469;28;19956;-69
2022/12/29 14:52:53;;;;;;;;;;;10.60;99.90;;;;;;5043770;28;20025;-71
2022/12/29 14:55:31;;;;;;;;;;;10.50;99.90;;;;;;5040239;28;19922;-71
2022/12/29 14:57:59;;;;;;;;;;;10.50;99.90;;;;;;5024278;28;19952;-69
2022/12/29 15:00:30;;;;;;;;;;;10.40;99.90;;;;;;5038521;28;19921;-69
2022/12/29 15:03:03;;;;;;;;;;;10.50;99.90;;;;;;5044917;28;20248;-71
2022/12/29 15:05:35;;;;;;;;;;;10.40;99.90;;;;;;5044754;28;19960;-68
2022/12/29 15:08:03;;;;;;;;;;;10.40;99.90;;;;;;5043987;28;19925;-67
2022/12/29 15:10:34;;;;;;;;;;;10.40;99.90;;;;;;5044532;28;19987;-68
2022/12/29 15:13:04;;;;;;;;;;;10.50;99.90;;;;;;5044819;28;19921;-68